sensor_id;sensor_type;location;lat;lon;timestamp;P1;durP1;ratioP1;P2;durP2;ratioP2
4704;SDS011;2366;51.332;6.610;2023-02-28T00:00:10;15.13;;;6.47;;
4704;SDS011;2366;51.332;6.610;2023-02-28T00:02:38;8.07;;;5.95;;
4704;SDS011;2366;51.332;6.610;2023-02-28T00:05:07;10.75;;;5.40;;
4704;SDS011;2366;51.332;6.610;2023-02-28T00:07:33;11.05;;;4.72;;
4704;SDS011;2366;51.332;6.610;2023-02-28T00:09:59;8.50;;;5.75;;
4704;SDS011;2366;51.332;6.610;2023-02-28T00:12:25;7.70;;;5.83;;
4704;SDS011;2366;51.332;6.610;2023-02-28T00:14:51;9.93;;;5.45;;
4704;SDS011;2366;51.332;6.610;2023-02-28T00:17:17;25.63;;;7.10;;
4704;SDS011;2366;51.332;6.610;2023-02-28T00:19:46;10.68;;;6.68;;
4704;SDS011;2366;51.332;6.610;2023-02-28T00:22:16;33.35;;;8.80;;
4704;SDS011;2366;51.332;6.610;2023-02-28T00:24:43;15.45;;;6.63;;
4704;SDS011;2366;51.332;6.610;2023-02-28T00:27:09;9.30;;;6.23;;
4704;SDS011;2366;51.332;6.610;2023-02-28T00:29:34;9.03;;;6.53;;
4704;SDS011;2366;51.332;6.610;2023-02-28T00:32:00;10.75;;;6.03;;
4704;SDS011;2366;51.332;6.610;2023-02-28T00:34:26;8.63;;;5.80;;
4704;SDS011;2366;51.332;6.610;2023-02-28T00:36:51;19.33;;;7.63;;
4704;SDS011;2366;51.332;6.610;2023-02-28T00:39:17;10.80;;;5.87;;
4704;SDS011;2366;51.332;6.610;2023-02-28T00:41:42;6.07;;;5.00;;
4704;SDS011;2366;51.332;6.610;2023-02-28T00:44:07;9.17;;;5.17;;
4704;SDS011;2366;51.332;6.610;2023-02-28T00:46:33;9.00;;;6.47;;
4704;SDS011;2366;51.332;6.610;2023-02-28T00:48:58;9.43;;;6.37;;
4704;SDS011;2366;51.332;6.610;2023-02-28T00:51:23;5.50;;;4.27;;
4704;SDS011;2366;51.332;6.610;2023-02-28T00:53:49;10.00;;;5.20;;
4704;SDS011;2366;51.332;6.610;2023-02-28T00:56:14;9.23;;;5.00;;
4704;SDS011;2366;51.332;6.610;2023-02-28T00:58:40;5.80;;;5.10;;
4704;SDS011;2366;51.332;6.610;2023-02-28T01:01:05;15.97;;;4.97;;
4704;SDS011;2366;51.332;6.610;2023-02-28T01:03:31;8.10;;;5.72;;
4704;SDS011;2366;51.332;6.610;2023-02-28T01:05:57;6.90;;;5.23;;
4704;SDS011;2366;51.332;6.610;2023-02-28T01:08:22;6.10;;;5.37;;
4704;SDS011;2366;51.332;6.610;2023-02-28T01:10:48;10.23;;;4.60;;
4704;SDS011;2366;51.332;6.610;2023-02-28T01:13:14;7.63;;;4.93;;
4704;SDS011;2366;51.332;6.610;2023-02-28T01:15:41;5.35;;;4.57;;
4704;SDS011;2366;51.332;6.610;2023-02-28T01:18:10;9.30;;;6.18;;
4704;SDS011;2366;51.332;6.610;2023-02-28T01:20:36;9.33;;;5.50;;
4704;SDS011;2366;51.332;6.610;2023-02-28T01:23:02;9.77;;;6.15;;
4704;SDS011;2366;51.332;6.610;2023-02-28T01:25:28;6.93;;;5.50;;
4704;SDS011;2366;51.332;6.610;2023-02-28T01:27:58;8.38;;;5.75;;
4704;SDS011;2366;51.332;6.610;2023-02-28T01:30:23;11.60;;;5.70;;
4704;SDS011;2366;51.332;6.610;2023-02-28T01:32:48;13.90;;;5.90;;
4704;SDS011;2366;51.332;6.610;2023-02-28T01:35:16;15.27;;;6.18;;
4704;SDS011;2366;51.332;6.610;2023-02-28T01:37:41;11.20;;;5.33;;
4704;SDS011;2366;51.332;6.610;2023-02-28T01:40:07;7.73;;;6.33;;
4704;SDS011;2366;51.332;6.610;2023-02-28T01:42:33;7.45;;;5.38;;
4704;SDS011;2366;51.332;6.610;2023-02-28T01:48:01;8.88;;;5.47;;
4704;SDS011;2366;51.332;6.610;2023-02-28T01:50:30;6.60;;;4.55;;
4704;SDS011;2366;51.332;6.610;2023-02-28T01:53:00;5.47;;;3.95;;
4704;SDS011;2366;51.332;6.610;2023-02-28T01:55:29;9.43;;;5.90;;
4704;SDS011;2366;51.332;6.610;2023-02-28T01:57:58;10.70;;;4.85;;
4704;SDS011;2366;51.332;6.610;2023-02-28T02:00:27;12.85;;;5.57;;
4704;SDS011;2366;51.332;6.610;2023-02-28T02:02:55;9.27;;;5.93;;
4704;SDS011;2366;51.332;6.610;2023-02-28T02:05:25;18.45;;;6.93;;
4704;SDS011;2366;51.332;6.610;2023-02-28T02:08:12;13.75;;;5.90;;
4704;SDS011;2366;51.332;6.610;2023-02-28T02:10:50;8.93;;;5.72;;
4704;SDS011;2366;51.332;6.610;2023-02-28T02:16:23;7.65;;;5.07;;
4704;SDS011;2366;51.332;6.610;2023-02-28T02:24:40;10.15;;;6.60;;
4704;SDS011;2366;51.332;6.610;2023-02-28T02:38:06;7.88;;;5.82;;
4704;SDS011;2366;51.332;6.610;2023-02-28T02:43:32;17.70;;;6.18;;
4704;SDS011;2366;51.332;6.610;2023-02-28T02:46:09;10.23;;;6.15;;
4704;SDS011;2366;51.332;6.610;2023-02-28T02:48:40;14.95;;;6.30;;
4704;SDS011;2366;51.332;6.610;2023-02-28T02:51:11;10.10;;;5.70;;
4704;SDS011;2366;51.332;6.610;2023-02-28T02:53:42;9.73;;;5.97;;
4704;SDS011;2366;51.332;6.610;2023-02-28T02:56:14;7.30;;;5.68;;
4704;SDS011;2366;51.332;6.610;2023-02-28T02:58:42;7.03;;;5.68;;
4704;SDS011;2366;51.332;6.610;2023-02-28T03:01:14;11.30;;;5.57;;
4704;SDS011;2366;51.332;6.610;2023-02-28T03:03:52;8.13;;;5.78;;
4704;SDS011;2366;51.332;6.610;2023-02-28T03:06:26;12.45;;;4.85;;
4704;SDS011;2366;51.332;6.610;2023-02-28T03:08:51;8.67;;;5.50;;
4704;SDS011;2366;51.332;6.610;2023-02-28T03:11:17;6.63;;;5.43;;
4704;SDS011;2366;51.332;6.610;2023-02-28T03:13:53;7.93;;;5.15;;
4704;SDS011;2366;51.332;6.610;2023-02-28T03:24:45;6.85;;;5.20;;
4704;SDS011;2366;51.332;6.610;2023-02-28T03:30:26;9.70;;;5.57;;
4704;SDS011;2366;51.332;6.610;2023-02-28T03:33:38;7.88;;;5.00;;
4704;SDS011;2366;51.332;6.610;2023-02-28T03:36:16;9.18;;;5.82;;
4704;SDS011;2366;51.332;6.610;2023-02-28T03:38:56;8.02;;;5.50;;
4704;SDS011;2366;51.332;6.610;2023-02-28T03:41:35;9.20;;;5.15;;
4704;SDS011;2366;51.332;6.610;2023-02-28T03:44:07;8.18;;;4.95;;
4704;SDS011;2366;51.332;6.610;2023-02-28T03:46:41;8.60;;;4.68;;
4704;SDS011;2366;51.332;6.610;2023-02-28T03:49:20;8.52;;;5.30;;
4704;SDS011;2366;51.332;6.610;2023-02-28T03:51:49;7.60;;;4.70;;
4704;SDS011;2366;51.332;6.610;2023-02-28T03:54:18;8.20;;;5.05;;
4704;SDS011;2366;51.332;6.610;2023-02-28T03:56:48;8.18;;;4.20;;
4704;SDS011;2366;51.332;6.610;2023-02-28T03:59:28;7.95;;;4.03;;
4704;SDS011;2366;51.332;6.610;2023-02-28T04:02:07;8.57;;;4.97;;
4704;SDS011;2366;51.332;6.610;2023-02-28T04:04:33;6.22;;;4.15;;
4704;SDS011;2366;51.332;6.610;2023-02-28T04:07:06;5.15;;;3.47;;
4704;SDS011;2366;51.332;6.610;2023-02-28T04:09:32;7.80;;;4.78;;
4704;SDS011;2366;51.332;6.610;2023-02-28T04:11:58;9.90;;;3.90;;
4704;SDS011;2366;51.332;6.610;2023-02-28T04:14:23;6.07;;;3.60;;
4704;SDS011;2366;51.332;6.610;2023-02-28T04:16:49;6.17;;;3.37;;
4704;SDS011;2366;51.332;6.610;2023-02-28T04:19:15;9.57;;;3.92;;
4704;SDS011;2366;51.332;6.610;2023-02-28T04:21:43;5.87;;;3.80;;
4704;SDS011;2366;51.332;6.610;2023-02-28T04:24:10;6.50;;;3.30;;
4704;SDS011;2366;51.332;6.610;2023-02-28T04:26:48;8.48;;;3.17;;
4704;SDS011;2366;51.332;6.610;2023-02-28T04:29:25;8.25;;;4.40;;
4704;SDS011;2366;51.332;6.610;2023-02-28T04:31:53;6.20;;;2.97;;
4704;SDS011;2366;51.332;6.610;2023-02-28T04:34:20;5.40;;;3.22;;
4704;SDS011;2366;51.332;6.610;2023-02-28T04:36:46;5.53;;;4.13;;
4704;SDS011;2366;51.332;6.610;2023-02-28T04:39:14;6.32;;;4.70;;
4704;SDS011;2366;51.332;6.610;2023-02-28T04:41:40;6.75;;;3.63;;
4704;SDS011;2366;51.332;6.610;2023-02-28T04:44:05;8.60;;;4.10;;
4704;SDS011;2366;51.332;6.610;2023-02-28T04:46:31;7.83;;;4.63;;
4704;SDS011;2366;51.332;6.610;2023-02-28T04:48:56;7.33;;;3.97;;
4704;SDS011;2366;51.332;6.610;2023-02-28T04:51:22;16.83;;;4.57;;
4704;SDS011;2366;51.332;6.610;2023-02-28T04:53:47;9.57;;;4.87;;
4704;SDS011;2366;51.332;6.610;2023-02-28T04:56:14;8.43;;;4.00;;
4704;SDS011;2366;51.332;6.610;2023-02-28T04:58:42;5.13;;;4.55;;
4704;SDS011;2366;51.332;6.610;2023-02-28T05:01:16;9.23;;;4.40;;
4704;SDS011;2366;51.332;6.610;2023-02-28T05:03:44;14.65;;;5.70;;
4704;SDS011;2366;51.332;6.610;2023-02-28T05:06:10;10.90;;;5.50;;
4704;SDS011;2366;51.332;6.610;2023-02-28T05:08:37;8.38;;;4.97;;
4704;SDS011;2366;51.332;6.610;2023-02-28T05:11:03;5.33;;;3.53;;
4704;SDS011;2366;51.332;6.610;2023-02-28T05:13:29;7.75;;;4.18;;
4704;SDS011;2366;51.332;6.610;2023-02-28T05:15:54;7.23;;;4.63;;
4704;SDS011;2366;51.332;6.610;2023-02-28T05:18:20;5.55;;;3.88;;
4704;SDS011;2366;51.332;6.610;2023-02-28T05:20:46;5.63;;;3.43;;
4704;SDS011;2366;51.332;6.610;2023-02-28T05:23:11;8.13;;;4.40;;
4704;SDS011;2366;51.332;6.610;2023-02-28T05:25:39;5.30;;;4.63;;
4704;SDS011;2366;51.332;6.610;2023-02-28T05:28:05;4.40;;;3.55;;
4704;SDS011;2366;51.332;6.610;2023-02-28T05:30:31;6.85;;;4.40;;
4704;SDS011;2366;51.332;6.610;2023-02-28T05:32:57;5.27;;;4.07;;
4704;SDS011;2366;51.332;6.610;2023-02-28T05:35:23;9.50;;;5.47;;
4704;SDS011;2366;51.332;6.610;2023-02-28T05:37:48;9.63;;;5.50;;
4704;SDS011;2366;51.332;6.610;2023-02-28T05:40:14;15.03;;;5.23;;
4704;SDS011;2366;51.332;6.610;2023-02-28T05:42:40;10.85;;;5.78;;
4704;SDS011;2366;51.332;6.610;2023-02-28T05:45:06;5.43;;;3.77;;
4704;SDS011;2366;51.332;6.610;2023-02-28T05:47:32;4.57;;;3.53;;
4704;SDS011;2366;51.332;6.610;2023-02-28T05:49:58;4.47;;;4.07;;
4704;SDS011;2366;51.332;6.610;2023-02-28T05:52:23;7.40;;;4.10;;
4704;SDS011;2366;51.332;6.610;2023-02-28T05:54:48;5.63;;;4.20;;
4704;SDS011;2366;51.332;6.610;2023-02-28T05:57:14;8.33;;;4.83;;
4704;SDS011;2366;51.332;6.610;2023-02-28T05:59:40;11.43;;;4.68;;
4704;SDS011;2366;51.332;6.610;2023-02-28T06:02:06;6.83;;;4.50;;
4704;SDS011;2366;51.332;6.610;2023-02-28T06:04:37;4.25;;;3.50;;
4704;SDS011;2366;51.332;6.610;2023-02-28T06:07:02;5.37;;;3.30;;
4704;SDS011;2366;51.332;6.610;2023-02-28T06:09:28;4.20;;;3.80;;
4704;SDS011;2366;51.332;6.610;2023-02-28T06:11:54;10.13;;;4.60;;
4704;SDS011;2366;51.332;6.610;2023-02-28T06:14:19;4.80;;;3.60;;
4704;SDS011;2366;51.332;6.610;2023-02-28T06:16:46;5.43;;;3.63;;
4704;SDS011;2366;51.332;6.610;2023-02-28T06:19:12;20.42;;;5.07;;
4704;SDS011;2366;51.332;6.610;2023-02-28T06:21:38;9.85;;;3.17;;
4704;SDS011;2366;51.332;6.610;2023-02-28T06:24:04;7.00;;;4.30;;
4704;SDS011;2366;51.332;6.610;2023-02-28T06:26:30;16.00;;;4.57;;
4704;SDS011;2366;51.332;6.610;2023-02-28T06:28:55;7.20;;;4.87;;
4704;SDS011;2366;51.332;6.610;2023-02-28T06:31:21;9.30;;;3.90;;
4704;SDS011;2366;51.332;6.610;2023-02-28T06:33:47;10.30;;;3.67;;
4704;SDS011;2366;51.332;6.610;2023-02-28T06:36:14;5.60;;;3.50;;
4704;SDS011;2366;51.332;6.610;2023-02-28T06:38:41;4.72;;;3.72;;
4704;SDS011;2366;51.332;6.610;2023-02-28T06:41:07;9.63;;;4.07;;
4704;SDS011;2366;51.332;6.610;2023-02-28T06:43:35;4.63;;;3.65;;
4704;SDS011;2366;51.332;6.610;2023-02-28T06:46:03;7.05;;;4.10;;
4704;SDS011;2366;51.332;6.610;2023-02-28T06:48:31;5.45;;;3.60;;
4704;SDS011;2366;51.332;6.610;2023-02-28T06:53:28;3.97;;;2.55;;
4704;SDS011;2366;51.332;6.610;2023-02-28T06:55:53;4.90;;;3.20;;
4704;SDS011;2366;51.332;6.610;2023-02-28T06:58:19;3.10;;;2.70;;
4704;SDS011;2366;51.332;6.610;2023-02-28T07:00:49;10.60;;;3.47;;
4704;SDS011;2366;51.332;6.610;2023-02-28T07:03:16;2.40;;;2.20;;
4704;SDS011;2366;51.332;6.610;2023-02-28T07:05:43;5.03;;;2.67;;
4704;SDS011;2366;51.332;6.610;2023-02-28T07:08:08;6.43;;;3.60;;
4704;SDS011;2366;51.332;6.610;2023-02-28T07:10:34;4.80;;;2.90;;
4704;SDS011;2366;51.332;6.610;2023-02-28T07:13:02;6.20;;;3.38;;
4704;SDS011;2366;51.332;6.610;2023-02-28T07:15:28;4.10;;;3.00;;
4704;SDS011;2366;51.332;6.610;2023-02-28T07:17:54;5.40;;;3.87;;
4704;SDS011;2366;51.332;6.610;2023-02-28T07:20:19;6.13;;;2.50;;
4704;SDS011;2366;51.332;6.610;2023-02-28T07:22:44;5.07;;;3.87;;
4704;SDS011;2366;51.332;6.610;2023-02-28T07:25:10;3.30;;;3.03;;
4704;SDS011;2366;51.332;6.610;2023-02-28T07:27:35;7.03;;;3.63;;
4704;SDS011;2366;51.332;6.610;2023-02-28T07:30:01;4.47;;;3.70;;
4704;SDS011;2366;51.332;6.610;2023-02-28T07:32:28;3.47;;;2.60;;
4704;SDS011;2366;51.332;6.610;2023-02-28T07:34:54;4.30;;;2.97;;
4704;SDS011;2366;51.332;6.610;2023-02-28T07:37:19;7.83;;;3.90;;
4704;SDS011;2366;51.332;6.610;2023-02-28T07:39:45;3.00;;;2.67;;
4704;SDS011;2366;51.332;6.610;2023-02-28T07:42:10;4.63;;;3.40;;
4704;SDS011;2366;51.332;6.610;2023-02-28T07:44:37;4.38;;;3.25;;
4704;SDS011;2366;51.332;6.610;2023-02-28T07:47:06;8.07;;;4.10;;
4704;SDS011;2366;51.332;6.610;2023-02-28T07:49:33;7.00;;;3.45;;
4704;SDS011;2366;51.332;6.610;2023-02-28T07:51:59;5.22;;;2.72;;
4704;SDS011;2366;51.332;6.610;2023-02-28T07:54:24;8.83;;;2.60;;
4704;SDS011;2366;51.332;6.610;2023-02-28T07:56:50;4.60;;;3.10;;
4704;SDS011;2366;51.332;6.610;2023-02-28T07:59:15;3.20;;;2.90;;
4704;SDS011;2366;51.332;6.610;2023-02-28T08:01:40;6.20;;;3.50;;
4704;SDS011;2366;51.332;6.610;2023-02-28T08:04:06;3.87;;;3.30;;
4704;SDS011;2366;51.332;6.610;2023-02-28T08:06:31;4.30;;;2.80;;
4704;SDS011;2366;51.332;6.610;2023-02-28T08:08:56;14.97;;;2.97;;
4704;SDS011;2366;51.332;6.610;2023-02-28T08:11:22;3.07;;;2.73;;
4704;SDS011;2366;51.332;6.610;2023-02-28T08:13:48;3.13;;;2.83;;
4704;SDS011;2366;51.332;6.610;2023-02-28T08:16:13;3.80;;;2.50;;
4704;SDS011;2366;51.332;6.610;2023-02-28T08:18:46;4.32;;;2.60;;
4704;SDS011;2366;51.332;6.610;2023-02-28T08:21:13;3.42;;;2.47;;
4704;SDS011;2366;51.332;6.610;2023-02-28T08:23:38;3.30;;;2.30;;
4704;SDS011;2366;51.332;6.610;2023-02-28T08:26:03;3.13;;;2.40;;
4704;SDS011;2366;51.332;6.610;2023-02-28T08:28:29;4.40;;;2.90;;
4704;SDS011;2366;51.332;6.610;2023-02-28T08:30:54;3.10;;;2.40;;
4704;SDS011;2366;51.332;6.610;2023-02-28T08:33:20;10.73;;;2.43;;
4704;SDS011;2366;51.332;6.610;2023-02-28T08:35:46;6.50;;;2.47;;
4704;SDS011;2366;51.332;6.610;2023-02-28T08:38:11;4.87;;;2.90;;
4704;SDS011;2366;51.332;6.610;2023-02-28T08:40:37;3.70;;;3.40;;
4704;SDS011;2366;51.332;6.610;2023-02-28T08:43:02;2.63;;;2.30;;
4704;SDS011;2366;51.332;6.610;2023-02-28T08:45:27;9.20;;;3.03;;
4704;SDS011;2366;51.332;6.610;2023-02-28T08:47:54;2.80;;;2.47;;
4704;SDS011;2366;51.332;6.610;2023-02-28T08:50:19;3.92;;;2.33;;
4704;SDS011;2366;51.332;6.610;2023-02-28T08:52:45;6.80;;;2.23;;
4704;SDS011;2366;51.332;6.610;2023-02-28T08:55:10;4.23;;;2.57;;
4704;SDS011;2366;51.332;6.610;2023-02-28T08:57:37;3.28;;;2.40;;
4704;SDS011;2366;51.332;6.610;2023-02-28T09:00:03;2.80;;;2.47;;
4704;SDS011;2366;51.332;6.610;2023-02-28T09:02:32;3.50;;;2.35;;
4704;SDS011;2366;51.332;6.610;2023-02-28T09:04:58;2.60;;;2.40;;
4704;SDS011;2366;51.332;6.610;2023-02-28T09:07:24;5.93;;;3.00;;
4704;SDS011;2366;51.332;6.610;2023-02-28T09:09:49;2.70;;;2.50;;
4704;SDS011;2366;51.332;6.610;2023-02-28T09:12:22;2.45;;;2.25;;
4704;SDS011;2366;51.332;6.610;2023-02-28T09:14:52;6.15;;;2.75;;
4704;SDS011;2366;51.332;6.610;2023-02-28T09:17:18;2.85;;;2.45;;
4704;SDS011;2366;51.332;6.610;2023-02-28T09:19:43;2.37;;;2.17;;
4704;SDS011;2366;51.332;6.610;2023-02-28T09:22:09;2.30;;;2.10;;
4704;SDS011;2366;51.332;6.610;2023-02-28T09:24:36;6.55;;;2.55;;
4704;SDS011;2366;51.332;6.610;2023-02-28T09:27:02;3.17;;;2.05;;
4704;SDS011;2366;51.332;6.610;2023-02-28T09:29:28;2.20;;;1.98;;
4704;SDS011;2366;51.332;6.610;2023-02-28T09:31:54;2.60;;;2.40;;
4704;SDS011;2366;51.332;6.610;2023-02-28T09:34:21;7.25;;;3.30;;
4704;SDS011;2366;51.332;6.610;2023-02-28T09:36:46;2.10;;;1.90;;
4704;SDS011;2366;51.332;6.610;2023-02-28T09:39:12;11.50;;;2.20;;
4704;SDS011;2366;51.332;6.610;2023-02-28T09:41:41;5.82;;;2.00;;
4704;SDS011;2366;51.332;6.610;2023-02-28T09:44:36;8.95;;;2.40;;
4704;SDS011;2366;51.332;6.610;2023-02-28T09:47:18;9.48;;;2.60;;
4704;SDS011;2366;51.332;6.610;2023-02-28T09:49:52;2.72;;;2.38;;
4704;SDS011;2366;51.332;6.610;2023-02-28T09:52:21;3.70;;;2.50;;
4704;SDS011;2366;51.332;6.610;2023-02-28T09:54:54;4.47;;;2.55;;
4704;SDS011;2366;51.332;6.610;2023-02-28T10:05:24;2.10;;;1.90;;
4704;SDS011;2366;51.332;6.610;2023-02-28T10:10:40;2.22;;;2.08;;
4704;SDS011;2366;51.332;6.610;2023-02-28T10:15:45;2.53;;;2.03;;
4704;SDS011;2366;51.332;6.610;2023-02-28T10:18:16;3.40;;;2.70;;
4704;SDS011;2366;51.332;6.610;2023-02-28T10:20:48;2.60;;;2.38;;
4704;SDS011;2366;51.332;6.610;2023-02-28T10:23:34;3.38;;;2.03;;
4704;SDS011;2366;51.332;6.610;2023-02-28T10:26:09;3.67;;;2.63;;
4704;SDS011;2366;51.332;6.610;2023-02-28T10:28:38;1.98;;;1.77;;
4704;SDS011;2366;51.332;6.610;2023-02-28T10:31:04;8.77;;;1.90;;
4704;SDS011;2366;51.332;6.610;2023-02-28T10:33:31;3.83;;;1.93;;
4704;SDS011;2366;51.332;6.610;2023-02-28T10:35:59;12.98;;;2.42;;
4704;SDS011;2366;51.332;6.610;2023-02-28T10:38:35;5.03;;;2.08;;
4704;SDS011;2366;51.332;6.610;2023-02-28T10:41:26;2.70;;;2.05;;
4704;SDS011;2366;51.332;6.610;2023-02-28T10:46:48;3.72;;;2.65;;
4704;SDS011;2366;51.332;6.610;2023-02-28T10:49:22;3.03;;;2.58;;
4704;SDS011;2366;51.332;6.610;2023-02-28T10:51:52;1.58;;;1.48;;
4704;SDS011;2366;51.332;6.610;2023-02-28T10:54:32;5.93;;;2.10;;
4704;SDS011;2366;51.332;6.610;2023-02-28T10:57:17;2.33;;;2.05;;
4704;SDS011;2366;51.332;6.610;2023-02-28T10:59:45;3.38;;;1.80;;
4704;SDS011;2366;51.332;6.610;2023-02-28T11:04:57;3.08;;;1.67;;
4704;SDS011;2366;51.332;6.610;2023-02-28T11:07:23;5.77;;;3.20;;
4704;SDS011;2366;51.332;6.610;2023-02-28T11:09:54;3.63;;;1.58;;
4704;SDS011;2366;51.332;6.610;2023-02-28T11:15:33;1.77;;;1.55;;
4704;SDS011;2366;51.332;6.610;2023-02-28T11:17:44;3.00;;;1.55;;
4704;SDS011;2366;51.332;6.610;2023-02-28T11:20:23;2.42;;;1.58;;
4704;SDS011;2366;51.332;6.610;2023-02-28T11:22:51;2.13;;;1.75;;
4704;SDS011;2366;51.332;6.610;2023-02-28T11:25:23;7.13;;;2.58;;
4704;SDS011;2366;51.332;6.610;2023-02-28T11:27:55;2.08;;;1.50;;
4704;SDS011;2366;51.332;6.610;2023-02-28T11:30:34;2.00;;;1.80;;
4704;SDS011;2366;51.332;6.610;2023-02-28T11:33:21;2.70;;;1.90;;
4704;SDS011;2366;51.332;6.610;2023-02-28T11:35:48;2.20;;;2.00;;
4704;SDS011;2366;51.332;6.610;2023-02-28T11:38:14;2.55;;;1.50;;
4704;SDS011;2366;51.332;6.610;2023-02-28T11:40:45;2.90;;;1.60;;
4704;SDS011;2366;51.332;6.610;2023-02-28T11:46:00;1.55;;;1.45;;
4704;SDS011;2366;51.332;6.610;2023-02-28T11:51:32;2.45;;;1.77;;
4704;SDS011;2366;51.332;6.610;2023-02-28T11:56:51;1.65;;;1.55;;
4704;SDS011;2366;51.332;6.610;2023-02-28T11:59:29;2.40;;;2.08;;
4704;SDS011;2366;51.332;6.610;2023-02-28T12:07:16;3.17;;;2.10;;
4704;SDS011;2366;51.332;6.610;2023-02-28T12:10:04;2.95;;;1.60;;
4704;SDS011;2366;51.332;6.610;2023-02-28T12:15:46;3.05;;;1.98;;
4704;SDS011;2366;51.332;6.610;2023-02-28T12:23:49;1.92;;;1.83;;
4704;SDS011;2366;51.332;6.610;2023-02-28T12:31:33;2.27;;;2.07;;
4704;SDS011;2366;51.332;6.610;2023-02-28T12:34:06;5.07;;;2.80;;
4704;SDS011;2366;51.332;6.610;2023-02-28T12:36:38;2.83;;;2.10;;
4704;SDS011;2366;51.332;6.610;2023-02-28T12:44:30;2.40;;;2.10;;
4704;SDS011;2366;51.332;6.610;2023-02-28T12:47:01;4.97;;;1.95;;
4704;SDS011;2366;51.332;6.610;2023-02-28T12:49:33;10.18;;;2.00;;
4704;SDS011;2366;51.332;6.610;2023-02-28T12:52:03;2.55;;;1.58;;
4704;SDS011;2366;51.332;6.610;2023-02-28T12:54:49;2.03;;;1.83;;
4704;SDS011;2366;51.332;6.610;2023-02-28T12:57:36;3.22;;;2.20;;
4704;SDS011;2366;51.332;6.610;2023-02-28T13:00:10;3.50;;;2.30;;
4704;SDS011;2366;51.332;6.610;2023-02-28T13:10:44;2.90;;;2.30;;
4704;SDS011;2366;51.332;6.610;2023-02-28T13:13:16;2.10;;;2.00;;
4704;SDS011;2366;51.332;6.610;2023-02-28T13:18:34;2.70;;;2.50;;
4704;SDS011;2366;51.332;6.610;2023-02-28T13:21:29;3.38;;;2.45;;
4704;SDS011;2366;51.332;6.610;2023-02-28T13:23:57;2.20;;;1.90;;
4704;SDS011;2366;51.332;6.610;2023-02-28T13:29:00;2.72;;;2.33;;
4704;SDS011;2366;51.332;6.610;2023-02-28T13:31:29;1.95;;;1.85;;
4704;SDS011;2366;51.332;6.610;2023-02-28T13:36:25;2.50;;;2.30;;
4704;SDS011;2366;51.332;6.610;2023-02-28T13:38:54;2.60;;;2.40;;
4704;SDS011;2366;51.332;6.610;2023-02-28T13:46:24;9.02;;;2.40;;
4704;SDS011;2366;51.332;6.610;2023-02-28T13:48:49;2.70;;;2.50;;
4704;SDS011;2366;51.332;6.610;2023-02-28T13:51:28;3.37;;;2.07;;
4704;SDS011;2366;51.332;6.610;2023-02-28T13:54:05;2.67;;;2.40;;
4704;SDS011;2366;51.332;6.610;2023-02-28T13:56:43;2.63;;;2.25;;
4704;SDS011;2366;51.332;6.610;2023-02-28T14:04:48;3.22;;;2.53;;
4704;SDS011;2366;51.332;6.610;2023-02-28T14:07:26;3.00;;;2.00;;
4704;SDS011;2366;51.332;6.610;2023-02-28T14:09:58;1.90;;;1.80;;
4704;SDS011;2366;51.332;6.610;2023-02-28T14:17:58;4.90;;;3.00;;
4704;SDS011;2366;51.332;6.610;2023-02-28T14:20:30;2.53;;;2.42;;
4704;SDS011;2366;51.332;6.610;2023-02-28T14:23:10;3.88;;;3.25;;
4704;SDS011;2366;51.332;6.610;2023-02-28T14:25:48;2.65;;;2.20;;
4704;SDS011;2366;51.332;6.610;2023-02-28T14:30:53;2.20;;;2.00;;
4704;SDS011;2366;51.332;6.610;2023-02-28T14:33:35;5.05;;;2.85;;
4704;SDS011;2366;51.332;6.610;2023-02-28T14:36:33;3.13;;;2.80;;
4704;SDS011;2366;51.332;6.610;2023-02-28T14:39:05;5.97;;;2.72;;
4704;SDS011;2366;51.332;6.610;2023-02-28T14:41:34;9.45;;;2.50;;
4704;SDS011;2366;51.332;6.610;2023-02-28T14:44:03;4.70;;;3.00;;
4704;SDS011;2366;51.332;6.610;2023-02-28T14:47:03;5.30;;;2.75;;
4704;SDS011;2366;51.332;6.610;2023-02-28T14:49:41;2.88;;;2.67;;
4704;SDS011;2366;51.332;6.610;2023-02-28T14:54:52;2.05;;;1.95;;
4704;SDS011;2366;51.332;6.610;2023-02-28T14:57:42;3.35;;;2.80;;
4704;SDS011;2366;51.332;6.610;2023-02-28T15:00:13;8.15;;;2.58;;
4704;SDS011;2366;51.332;6.610;2023-02-28T15:02:54;5.45;;;3.00;;
4704;SDS011;2366;51.332;6.610;2023-02-28T15:08:15;3.20;;;2.90;;
4704;SDS011;2366;51.332;6.610;2023-02-28T15:10:42;4.13;;;2.58;;
4704;SDS011;2366;51.332;6.610;2023-02-28T15:13:11;3.55;;;2.97;;
4704;SDS011;2366;51.332;6.610;2023-02-28T15:18:21;3.70;;;3.15;;
4704;SDS011;2366;51.332;6.610;2023-02-28T15:20:57;3.20;;;2.95;;
4704;SDS011;2366;51.332;6.610;2023-02-28T15:23:27;2.70;;;2.53;;
4704;SDS011;2366;51.332;6.610;2023-02-28T15:25:54;4.00;;;3.70;;
4704;SDS011;2366;51.332;6.610;2023-02-28T15:28:20;4.00;;;2.97;;
4704;SDS011;2366;51.332;6.610;2023-02-28T15:30:56;9.18;;;2.88;;
4704;SDS011;2366;51.332;6.610;2023-02-28T15:33:27;4.22;;;3.00;;
4704;SDS011;2366;51.332;6.610;2023-02-28T15:36:10;4.05;;;3.38;;
4704;SDS011;2366;51.332;6.610;2023-02-28T15:38:39;3.55;;;3.22;;
4704;SDS011;2366;51.332;6.610;2023-02-28T15:41:05;3.40;;;3.20;;
4704;SDS011;2366;51.332;6.610;2023-02-28T15:43:36;4.53;;;3.85;;
4704;SDS011;2366;51.332;6.610;2023-02-28T15:46:06;6.93;;;3.60;;
4704;SDS011;2366;51.332;6.610;2023-02-28T15:48:38;3.80;;;3.00;;
4704;SDS011;2366;51.332;6.610;2023-02-28T15:51:23;3.65;;;3.35;;
4704;SDS011;2366;51.332;6.610;2023-02-28T15:53:58;7.80;;;4.88;;
4704;SDS011;2366;51.332;6.610;2023-02-28T15:56:30;4.45;;;3.20;;
4704;SDS011;2366;51.332;6.610;2023-02-28T15:58:59;4.63;;;3.10;;
4704;SDS011;2366;51.332;6.610;2023-02-28T16:01:28;3.38;;;2.83;;
4704;SDS011;2366;51.332;6.610;2023-02-28T16:03:56;2.85;;;2.65;;
4704;SDS011;2366;51.332;6.610;2023-02-28T16:09:13;5.65;;;3.50;;
4704;SDS011;2366;51.332;6.610;2023-02-28T16:11:47;3.80;;;3.50;;
4704;SDS011;2366;51.332;6.610;2023-02-28T16:14:15;4.55;;;3.22;;
4704;SDS011;2366;51.332;6.610;2023-02-28T16:16:48;3.92;;;3.63;;
4704;SDS011;2366;51.332;6.610;2023-02-28T16:19:16;9.40;;;4.72;;
4704;SDS011;2366;51.332;6.610;2023-02-28T16:21:44;7.53;;;4.13;;
4704;SDS011;2366;51.332;6.610;2023-02-28T16:24:10;4.63;;;3.55;;
4704;SDS011;2366;51.332;6.610;2023-02-28T16:26:35;3.63;;;3.33;;
4704;SDS011;2366;51.332;6.610;2023-02-28T16:29:02;3.53;;;3.28;;
4704;SDS011;2366;51.332;6.610;2023-02-28T16:31:28;7.75;;;3.95;;
4704;SDS011;2366;51.332;6.610;2023-02-28T16:33:54;7.80;;;4.95;;
4704;SDS011;2366;51.332;6.610;2023-02-28T16:36:21;5.00;;;4.50;;
4704;SDS011;2366;51.332;6.610;2023-02-28T16:38:50;4.95;;;4.45;;
4704;SDS011;2366;51.332;6.610;2023-02-28T16:41:20;10.63;;;4.38;;
4704;SDS011;2366;51.332;6.610;2023-02-28T16:43:48;4.22;;;3.38;;
4704;SDS011;2366;51.332;6.610;2023-02-28T16:46:15;3.55;;;3.33;;
4704;SDS011;2366;51.332;6.610;2023-02-28T16:48:41;6.18;;;2.72;;
4704;SDS011;2366;51.332;6.610;2023-02-28T16:51:17;3.55;;;3.25;;
4704;SDS011;2366;51.332;6.610;2023-02-28T16:53:43;4.55;;;3.03;;
4704;SDS011;2366;51.332;6.610;2023-02-28T16:56:14;4.15;;;3.75;;
4704;SDS011;2366;51.332;6.610;2023-02-28T16:58:45;7.60;;;3.80;;
4704;SDS011;2366;51.332;6.610;2023-02-28T17:01:12;2.83;;;2.63;;
4704;SDS011;2366;51.332;6.610;2023-02-28T17:03:37;4.27;;;3.53;;
4704;SDS011;2366;51.332;6.610;2023-02-28T17:06:03;3.80;;;3.13;;
4704;SDS011;2366;51.332;6.610;2023-02-28T17:08:30;5.47;;;3.38;;
4704;SDS011;2366;51.332;6.610;2023-02-28T17:10:57;7.32;;;4.20;;
4704;SDS011;2366;51.332;6.610;2023-02-28T17:13:23;4.10;;;3.70;;
4704;SDS011;2366;51.332;6.610;2023-02-28T17:15:48;11.00;;;7.40;;
4704;SDS011;2366;51.332;6.610;2023-02-28T17:18:14;4.60;;;4.20;;
4704;SDS011;2366;51.332;6.610;2023-02-28T17:20:43;7.97;;;4.00;;
4704;SDS011;2366;51.332;6.610;2023-02-28T17:23:09;4.95;;;4.03;;
4704;SDS011;2366;51.332;6.610;2023-02-28T17:25:35;5.40;;;3.83;;
4704;SDS011;2366;51.332;6.610;2023-02-28T17:28:00;3.83;;;3.53;;
4704;SDS011;2366;51.332;6.610;2023-02-28T17:30:26;4.90;;;3.67;;
4704;SDS011;2366;51.332;6.610;2023-02-28T17:32:53;4.80;;;4.13;;
4704;SDS011;2366;51.332;6.610;2023-02-28T17:35:19;7.80;;;7.10;;
4704;SDS011;2366;51.332;6.610;2023-02-28T17:37:45;5.00;;;4.60;;
4704;SDS011;2366;51.332;6.610;2023-02-28T17:40:17;6.10;;;4.30;;
4704;SDS011;2366;51.332;6.610;2023-02-28T17:42:45;5.63;;;4.38;;
4704;SDS011;2366;51.332;6.610;2023-02-28T17:45:11;8.03;;;4.83;;